createdAt,value
2023-04-16T00:02:06.529Z,90.44
2023-04-16T00:05:09.091Z,90.72
2023-04-16T00:08:11.236Z,90.57
2023-04-16T00:11:13.242Z,90.48
2023-04-16T00:14:15.328Z,90.63
2023-04-16T00:17:17.413Z,90.69
2023-04-16T00:20:20.680Z,90.51
2023-04-16T00:23:22.731Z,91.03
2023-04-16T00:26:24.703Z,90.79
2023-04-16T00:29:28.971Z,90.62
2023-04-16T00:32:31.085Z,90.77
2023-04-16T00:35:33.167Z,90.57
2023-04-16T00:38:35.671Z,90.76
2023-04-16T00:41:38.646Z,90.76
2023-04-16T00:44:40.772Z,90.60
2023-04-16T00:47:43.018Z,90.79
2023-04-16T00:50:45.180Z,90.51
2023-04-16T00:53:48.090Z,90.42
2023-04-16T00:56:51.337Z,90.69
2023-04-16T00:59:54.639Z,90.67
2023-04-16T01:02:57.403Z,90.69
2023-04-16T01:05:59.570Z,90.67
2023-04-16T01:09:01.989Z,90.89
2023-04-16T01:12:04.052Z,90.85
2023-04-16T01:15:06.602Z,91.29
2023-04-16T01:18:19.100Z,90.96
2023-04-16T01:21:21.168Z,90.94
2023-04-16T01:24:23.222Z,90.92
2023-04-16T01:27:25.296Z,90.81
2023-04-16T01:30:27.341Z,90.90
2023-04-16T01:33:39.944Z,91.03
2023-04-16T01:36:42.469Z,91.02
2023-04-16T01:39:44.511Z,91.09
2023-04-16T01:42:46.557Z,91.04
2023-04-16T01:45:48.621Z,90.92
2023-04-16T01:48:50.801Z,91.06
2023-04-16T01:51:54.427Z,91.01
2023-04-16T01:54:56.621Z,90.99
2023-04-16T01:57:58.648Z,91.18
2023-04-16T02:01:06.001Z,91.26
2023-04-16T02:04:08.750Z,91.09
2023-04-16T02:07:11.677Z,90.90
2023-04-16T02:10:13.771Z,91.24
2023-04-16T02:13:16.915Z,91.26
2023-04-16T02:16:21.297Z,91.47
2023-04-16T02:19:30.200Z,91.49
2023-04-16T02:22:32.227Z,91.32
2023-04-16T02:25:39.237Z,91.62
2023-04-16T02:28:41.575Z,91.48
2023-04-16T02:31:47.030Z,91.59
2023-04-16T02:34:49.604Z,91.45
2023-04-16T02:37:51.723Z,91.71
2023-04-16T02:40:53.750Z,91.56
2023-04-16T02:43:56.548Z,91.55
2023-04-16T02:46:58.539Z,91.72
2023-04-16T02:50:00.517Z,91.64
2023-04-16T02:53:02.550Z,91.96
2023-04-16T02:56:04.786Z,91.77
2023-04-16T02:59:06.950Z,91.70
2023-04-16T03:02:09.266Z,92.03
2023-04-16T03:05:12.533Z,91.96
2023-04-16T03:08:14.754Z,91.98
2023-04-16T03:11:17.017Z,92.12
2023-04-16T03:14:19.291Z,92.35
2023-04-16T03:17:21.284Z,92.00
2023-04-16T03:20:23.547Z,92.14
2023-04-16T03:23:28.642Z,92.21
2023-04-16T03:26:30.812Z,92.27
2023-04-16T03:29:33.105Z,92.09
2023-04-16T03:32:35.188Z,92.13
2023-04-16T03:35:39.039Z,92.28
2023-04-16T03:38:41.172Z,92.48
2023-04-16T03:41:43.294Z,92.51
2023-04-16T03:44:45.516Z,92.33
2023-04-16T03:47:52.761Z,92.56
2023-04-16T03:50:58.376Z,92.55
2023-04-16T03:54:00.936Z,92.47
2023-04-16T03:57:04.143Z,92.45
2023-04-16T04:00:06.900Z,92.60
2023-04-16T04:03:31.177Z,92.61
2023-04-16T04:06:33.621Z,92.57
2023-04-16T04:09:35.689Z,92.64
2023-04-16T04:12:38.752Z,92.59
2023-04-16T04:15:40.823Z,92.63
2023-04-16T04:18:44.474Z,92.50
2023-04-16T04:21:46.882Z,92.73
2023-04-16T04:24:48.964Z,92.71
2023-04-16T04:27:51.117Z,92.56
2023-04-16T04:30:53.047Z,92.82
2023-04-16T04:33:55.096Z,92.72
2023-04-16T04:36:57.096Z,92.85
2023-04-16T04:40:00.264Z,92.73
2023-04-16T04:43:02.708Z,92.78
2023-04-16T04:46:04.803Z,92.65
2023-04-16T04:49:07.595Z,92.92
2023-04-16T04:52:09.941Z,92.85
2023-04-16T04:55:12.729Z,93.00
2023-04-16T04:58:16.034Z,92.88
2023-04-16T05:01:18.752Z,92.99
2023-04-16T05:04:20.952Z,92.95
2023-04-16T05:07:23.017Z,93.08
2023-04-16T05:10:25.059Z,92.96
2023-04-16T05:13:27.314Z,93.16
2023-04-16T05:16:29.336Z,93.17
2023-04-16T05:19:31.694Z,93.21
2023-04-16T05:22:35.017Z,93.19
2023-04-16T05:25:37.215Z,92.95
2023-04-16T05:28:39.275Z,93.16
2023-04-16T05:31:41.361Z,93.28
2023-04-16T05:34:43.406Z,93.36
2023-04-16T05:37:45.455Z,93.16
2023-04-16T05:40:47.635Z,93.30
2023-04-16T05:43:49.678Z,93.41
2023-04-16T05:46:51.960Z,93.48
2023-04-16T05:49:53.974Z,93.38
2023-04-16T05:52:55.959Z,93.36
2023-04-16T05:55:58.017Z,93.45
2023-04-16T05:59:00.082Z,93.40
2023-04-16T06:02:02.351Z,93.33
2023-04-16T06:05:04.792Z,93.51
2023-04-16T06:08:06.951Z,93.58
2023-04-16T06:11:09.803Z,93.57
2023-04-16T06:14:12.097Z,93.48
2023-04-16T06:17:14.119Z,93.23
2023-04-16T06:20:16.141Z,92.62
2023-04-16T06:23:18.153Z,90.47
2023-04-16T06:26:20.277Z,87.05
2023-04-16T06:29:27.894Z,85.56
2023-04-16T06:32:35.597Z,83.11
2023-04-16T06:35:37.582Z,82.97
2023-04-16T06:38:39.651Z,83.75
2023-04-16T06:41:41.681Z,82.83
2023-04-16T06:44:43.666Z,82.78
2023-04-16T06:47:45.758Z,82.75
2023-04-16T06:50:47.847Z,82.42
2023-04-16T06:53:49.915Z,81.40
2023-04-16T06:56:52.001Z,82.63
2023-04-16T06:59:54.098Z,79.57
2023-04-16T07:02:58.256Z,79.27
2023-04-16T07:06:00.624Z,78.86
2023-04-16T07:09:02.704Z,79.45
2023-04-16T07:12:05.071Z,79.51
2023-04-16T07:15:07.861Z,79.56
2023-04-16T07:18:10.058Z,80.08
2023-04-16T07:21:12.260Z,79.33
2023-04-16T07:24:14.298Z,78.87
2023-04-16T07:27:17.122Z,78.15
2023-04-16T07:30:19.130Z,77.75
2023-04-16T07:33:21.276Z,78.31
2023-04-16T07:36:23.329Z,77.70
2023-04-16T07:39:25.486Z,76.65
2023-04-16T07:42:28.364Z,77.58
2023-04-16T07:45:30.406Z,76.60
2023-04-16T07:48:32.372Z,76.48
2023-04-16T07:51:34.437Z,76.63
2023-04-16T07:54:36.488Z,76.91
2023-04-16T07:57:38.555Z,76.94
2023-04-16T08:00:40.761Z,77.12
2023-04-16T08:03:43.239Z,76.70
2023-04-16T08:06:45.676Z,77.46
2023-04-16T08:09:49.735Z,77.37
2023-04-16T08:12:57.553Z,74.13
2023-04-16T08:15:59.611Z,73.89
2023-04-16T08:19:01.910Z,73.25
2023-04-16T08:22:04.261Z,73.36
2023-04-16T08:25:06.766Z,73.85
2023-04-16T08:28:08.786Z,72.31
2023-04-16T08:31:11.035Z,72.29
2023-04-16T08:34:13.982Z,73.76
2023-04-16T08:37:16.041Z,73.43
2023-04-16T08:40:18.138Z,71.79
2023-04-16T08:43:24.386Z,71.17
2023-04-16T08:46:27.100Z,70.96
2023-04-16T08:49:29.875Z,71.29
2023-04-16T08:52:32.529Z,68.67
2023-04-16T08:55:39.964Z,69.34
2023-04-16T08:58:42.479Z,69.86
2023-04-16T09:01:46.703Z,68.33
2023-04-16T09:04:50.800Z,69.35
2023-04-16T09:07:54.698Z,69.33
2023-04-16T09:10:57.520Z,69.05
2023-04-16T09:14:01.007Z,68.29
2023-04-16T09:17:04.398Z,68.06
2023-04-16T09:20:11.492Z,67.55
2023-04-16T09:23:13.557Z,68.76
2023-04-16T09:26:16.370Z,69.17
2023-04-16T09:29:37.480Z,68.26
2023-04-16T09:32:39.598Z,68.54
2023-04-16T09:35:54.073Z,67.13
2023-04-16T09:38:57.772Z,68.12
2023-04-16T09:41:59.944Z,66.47
2023-04-16T09:45:04.916Z,65.51
2023-04-16T09:48:07.904Z,64.95
2023-04-16T09:51:09.945Z,66.16
2023-04-16T09:54:12.056Z,65.06
2023-04-16T09:57:14.537Z,62.08
2023-04-16T10:00:19.093Z,63.57
2023-04-16T10:03:33.185Z,61.49
2023-04-16T10:06:35.445Z,61.42
2023-04-16T10:09:46.109Z,63.32
2023-04-16T10:12:52.665Z,63.27
2023-04-16T10:15:58.126Z,62.46
2023-04-16T10:19:00.392Z,60.75
2023-04-16T10:22:03.214Z,62.11
2023-04-16T10:25:08.512Z,62.35
2023-04-16T10:28:14.437Z,63.38
2023-04-16T10:31:17.967Z,64.62
2023-04-16T10:34:21.541Z,64.33
2023-04-16T10:37:34.875Z,65.92
2023-04-16T10:40:37.508Z,65.80
2023-04-16T10:43:50.488Z,66.01
2023-04-16T10:46:55.140Z,67.23
2023-04-16T10:49:58.428Z,67.04
2023-04-16T10:53:20.099Z,66.69
2023-04-16T10:56:27.489Z,67.08
2023-04-16T10:59:35.140Z,66.25
2023-04-16T11:02:41.399Z,65.25
2023-04-16T11:05:47.426Z,65.47
2023-04-16T11:08:54.955Z,65.03
2023-04-16T11:11:57.900Z,64.58
2023-04-16T11:15:09.792Z,62.76
2023-04-16T11:18:11.926Z,62.26
2023-04-16T11:21:14.085Z,62.79
2023-04-16T11:24:16.383Z,62.49
2023-04-16T11:27:18.536Z,61.49
2023-04-16T11:30:36.697Z,62.68
2023-04-16T11:33:39.387Z,62.41
2023-04-16T11:36:48.525Z,60.92
2023-04-16T11:39:53.796Z,59.78
2023-04-16T11:42:56.205Z,61.53
2023-04-16T11:46:05.449Z,59.29
2023-04-16T11:49:17.499Z,59.05
2023-04-16T11:52:32.259Z,59.77
2023-04-16T11:55:44.436Z,58.03
2023-04-16T11:59:12.151Z,55.44
2023-04-16T12:02:14.588Z,56.35
2023-04-16T12:05:31.479Z,56.98
2023-04-16T12:08:33.581Z,56.24
2023-04-16T12:11:40.518Z,56.37
2023-04-16T12:14:50.819Z,57.51
2023-04-16T12:18:07.505Z,56.84
2023-04-16T12:21:09.655Z,55.32
2023-04-16T12:24:14.160Z,55.90
2023-04-16T12:27:16.512Z,57.94
2023-04-16T12:30:20.976Z,60.18
2023-04-16T12:33:23.354Z,60.78
2023-04-16T12:36:25.469Z,61.91
2023-04-16T12:39:27.742Z,61.54
2023-04-16T12:42:35.783Z,63.04
2023-04-16T12:45:39.022Z,64.19
2023-04-16T12:48:41.809Z,64.94
2023-04-16T12:51:43.890Z,66.49
2023-04-16T12:54:46.029Z,66.29
2023-04-16T12:57:53.281Z,66.43
2023-04-16T13:00:55.380Z,66.00
2023-04-16T13:03:57.884Z,66.82
2023-04-16T13:07:00.773Z,66.90
2023-04-16T13:10:02.847Z,68.22
2023-04-16T13:13:05.445Z,67.26
2023-04-16T13:16:08.955Z,67.00
2023-04-16T13:19:11.356Z,67.84
2023-04-16T13:22:13.781Z,69.01
2023-04-16T13:25:16.028Z,68.98
2023-04-16T13:28:18.505Z,68.38
2023-04-16T13:31:22.368Z,66.94
2023-04-16T13:34:24.625Z,67.63
2023-04-16T13:37:26.863Z,67.14
2023-04-16T13:40:29.714Z,64.41
2023-04-16T13:43:32.993Z,65.13
2023-04-16T13:46:35.046Z,65.39
2023-04-16T13:49:37.392Z,64.05
2023-04-16T13:52:39.659Z,61.75
2023-04-16T13:55:42.963Z,63.85
2023-04-16T13:58:45.592Z,63.20
2023-04-16T14:01:47.880Z,61.19
2023-04-16T14:04:49.875Z,59.76
2023-04-16T14:07:52.095Z,60.00
2023-04-16T14:10:55.733Z,61.74
2023-04-16T14:13:58.852Z,60.70
2023-04-16T14:17:03.482Z,61.30
2023-04-16T14:20:07.322Z,60.12
2023-04-16T14:23:09.750Z,58.09
2023-04-16T14:26:12.282Z,59.74
2023-04-16T14:29:14.381Z,60.77
2023-04-16T14:32:16.785Z,59.26
2023-04-16T14:35:19.198Z,60.34
2023-04-16T14:38:21.506Z,59.02
2023-04-16T14:41:23.507Z,58.88
2023-04-16T14:44:25.731Z,59.48
2023-04-16T14:47:28.949Z,58.73
2023-04-16T14:50:31.549Z,59.87
2023-04-16T14:53:34.689Z,58.22
2023-04-16T14:56:36.742Z,58.89
2023-04-16T14:59:39.186Z,59.09
2023-04-16T15:02:42.638Z,58.90
2023-04-16T15:05:45.255Z,60.24
2023-04-16T15:08:47.318Z,61.10
2023-04-16T15:11:49.528Z,63.30
2023-04-16T15:14:51.475Z,62.45
2023-04-16T15:17:54.108Z,64.31
2023-04-16T15:20:56.643Z,64.83
2023-04-16T15:23:59.465Z,65.38
2023-04-16T15:27:03.054Z,66.04
2023-04-16T15:30:05.524Z,65.98
2023-04-16T15:33:08.584Z,67.13
2023-04-16T15:36:12.198Z,65.98
2023-04-16T15:39:14.859Z,65.12
2023-04-16T15:42:17.361Z,66.23
2023-04-16T15:45:19.692Z,65.93
2023-04-16T15:48:22.339Z,65.94
2023-04-16T15:51:25.020Z,65.66
2023-04-16T15:54:27.371Z,65.67
2023-04-16T15:57:30.109Z,64.99
2023-04-16T16:00:32.602Z,65.65
2023-04-16T16:03:36.708Z,68.63
2023-04-16T16:06:39.546Z,66.90
2023-04-16T16:09:42.329Z,68.03
2023-04-16T16:12:44.797Z,68.95
2023-04-16T16:15:47.392Z,69.32
2023-04-16T16:18:58.828Z,70.94
2023-04-16T16:22:01.652Z,70.56
2023-04-16T16:25:04.761Z,71.08
2023-04-16T16:28:07.345Z,70.70
2023-04-16T16:31:10.087Z,70.80
2023-04-16T16:34:19.959Z,72.60
2023-04-16T16:37:26.914Z,73.25
2023-04-16T16:40:31.461Z,74.05
2023-04-16T16:43:37.760Z,73.92
2023-04-16T16:46:40.717Z,74.20
2023-04-16T16:49:43.399Z,74.81
2023-04-16T16:52:46.311Z,76.27
2023-04-16T16:55:48.877Z,76.69
2023-04-16T16:58:51.788Z,77.88
2023-04-16T17:01:54.449Z,78.09
2023-04-16T17:04:59.611Z,78.70
2023-04-16T17:08:02.489Z,78.73
2023-04-16T17:11:06.000Z,79.49
2023-04-16T17:14:08.804Z,79.72
2023-04-16T17:17:11.530Z,79.72
2023-04-16T17:20:17.676Z,79.88
2023-04-16T17:23:28.156Z,80.50
2023-04-16T17:26:32.547Z,80.69
2023-04-16T17:29:35.520Z,81.48
2023-04-16T17:32:38.684Z,82.14
2023-04-16T17:35:41.597Z,82.41
2023-04-16T17:38:45.076Z,82.79
2023-04-16T17:41:47.624Z,83.70
2023-04-16T17:44:51.491Z,83.63
2023-04-16T17:47:54.795Z,83.37
2023-04-16T17:50:57.564Z,83.45
2023-04-16T17:54:00.022Z,83.59
2023-04-16T17:57:02.763Z,83.47
2023-04-16T18:00:12.599Z,83.15
2023-04-16T18:03:16.253Z,83.63
2023-04-16T18:06:20.860Z,84.00
2023-04-16T18:09:24.211Z,84.27
2023-04-16T18:12:27.117Z,84.58
2023-04-16T18:15:29.887Z,84.75
2023-04-16T18:18:32.675Z,84.93
2023-04-16T18:21:36.395Z,85.29
2023-04-16T18:24:39.284Z,84.98
2023-04-16T18:27:42.362Z,85.12
2023-04-16T18:30:45.997Z,85.24
2023-04-16T18:33:57.602Z,85.18
2023-04-16T18:37:04.427Z,85.41
2023-04-16T18:40:07.609Z,86.12
2023-04-16T18:43:10.030Z,86.08
2023-04-16T18:46:13.620Z,86.30
2023-04-16T18:49:16.908Z,86.34
2023-04-16T18:52:19.473Z,86.41
2023-04-16T18:55:22.652Z,86.67
2023-04-16T18:58:26.247Z,86.96
2023-04-16T19:01:30.053Z,86.93
2023-04-16T19:04:32.704Z,87.05
2023-04-16T19:07:36.075Z,86.92
2023-04-16T19:10:39.295Z,87.23
2023-04-16T19:13:42.309Z,87.24
2023-04-16T19:16:45.417Z,87.23
2023-04-16T19:19:48.384Z,87.20
2023-04-16T19:22:51.241Z,87.28
2023-04-16T19:25:54.453Z,87.32
2023-04-16T19:28:57.991Z,87.64
2023-04-16T19:32:02.875Z,87.67
2023-04-16T19:35:06.215Z,87.56
2023-04-16T19:38:10.293Z,87.64
2023-04-16T19:41:13.403Z,87.84
2023-04-16T19:44:15.867Z,88.32
2023-04-16T19:47:18.649Z,88.11
2023-04-16T19:50:22.364Z,88.14
2023-04-16T19:53:25.289Z,88.31
2023-04-16T19:56:27.920Z,88.81
2023-04-16T19:59:32.869Z,88.68
2023-04-16T20:02:35.273Z,88.84
2023-04-16T20:05:37.752Z,88.87
2023-04-16T20:08:40.225Z,88.95
2023-04-16T20:11:43.840Z,89.16
2023-04-16T20:14:46.402Z,88.93
2023-04-16T20:17:49.066Z,89.07
2023-04-16T20:20:51.468Z,89.11
2023-04-16T20:23:53.885Z,89.40
2023-04-16T20:26:57.203Z,88.99
2023-04-16T20:30:03.703Z,89.07
2023-04-16T20:33:07.159Z,88.96
2023-04-16T20:36:09.658Z,89.16
2023-04-16T20:39:12.886Z,89.44
2023-04-16T20:42:15.276Z,89.49
2023-04-16T20:45:18.750Z,89.28
2023-04-16T20:48:21.115Z,89.50
2023-04-16T20:51:23.493Z,89.54
2023-04-16T20:54:25.879Z,89.72
2023-04-16T20:57:29.871Z,89.71
2023-04-16T21:00:32.152Z,89.94
2023-04-16T21:03:34.584Z,89.93
2023-04-16T21:06:38.794Z,90.15
2023-04-16T21:09:41.022Z,90.02
2023-04-16T21:12:43.170Z,89.70
2023-04-16T21:15:45.923Z,89.57
2023-04-16T21:18:48.183Z,89.79
2023-04-16T21:21:50.261Z,89.99
2023-04-16T21:24:52.401Z,89.58
2023-04-16T21:27:54.685Z,90.09
2023-04-16T21:30:56.689Z,90.04
2023-04-16T21:33:58.767Z,89.98
2023-04-16T21:37:00.893Z,89.94
2023-04-16T21:40:05.789Z,90.10
2023-04-16T21:43:07.839Z,90.27
2023-04-16T21:46:09.894Z,89.91
2023-04-16T21:49:12.171Z,90.32
2023-04-16T21:52:14.401Z,90.21
2023-04-16T21:55:16.457Z,90.25
2023-04-16T21:58:18.475Z,90.42
2023-04-16T22:01:20.546Z,90.28
2023-04-16T22:04:26.434Z,90.45
2023-04-16T22:07:29.104Z,90.45
2023-04-16T22:10:31.457Z,90.51
2023-04-16T22:13:33.590Z,90.52
2023-04-16T22:16:36.293Z,90.54
2023-04-16T22:19:39.457Z,90.47
2023-04-16T22:22:42.570Z,90.62
2023-04-16T22:25:44.823Z,90.46
2023-04-16T22:28:46.800Z,90.51
2023-04-16T22:31:48.927Z,90.35
2023-04-16T22:34:52.434Z,90.56
2023-04-16T22:37:54.419Z,90.58
2023-04-16T22:40:56.467Z,90.62
2023-04-16T22:43:58.551Z,90.88
2023-04-16T22:47:00.569Z,90.83
2023-04-16T22:50:03.489Z,90.38
2023-04-16T22:53:05.898Z,90.54
2023-04-16T22:56:08.110Z,90.29
2023-04-16T22:59:10.424Z,90.23
2023-04-16T23:02:12.817Z,89.98
2023-04-16T23:05:15.051Z,90.14
2023-04-16T23:08:17.141Z,90.06
2023-04-16T23:11:19.295Z,90.00
2023-04-16T23:14:21.525Z,90.27
2023-04-16T23:17:23.696Z,90.29
2023-04-16T23:20:26.239Z,90.39
2023-04-16T23:23:28.391Z,90.66
2023-04-16T23:26:30.493Z,90.43
2023-04-16T23:29:32.515Z,90.23
2023-04-16T23:32:34.617Z,90.19
2023-04-16T23:35:36.557Z,90.60
2023-04-16T23:38:38.543Z,90.63
2023-04-16T23:41:40.603Z,90.36
2023-04-16T23:44:42.686Z,90.57
2023-04-16T23:47:44.873Z,90.48
2023-04-16T23:50:46.908Z,90.60
2023-04-16T23:53:49.020Z,90.78
2023-04-16T23:56:51.050Z,91.05
2023-04-16T23:59:53.083Z,91.06
